createdAt,value
2019-03-17T00:00:29.506Z,8.70
2019-03-17T00:01:34.141Z,8.70
2019-03-17T00:02:38.703Z,8.70
2019-03-17T00:03:43.357Z,8.70
2019-03-17T00:04:48.007Z,8.70
2019-03-17T00:05:53.633Z,8.70
2019-03-17T00:06:58.167Z,8.80
2019-03-17T00:08:02.726Z,8.70
2019-03-17T00:09:07.912Z,8.80
2019-03-17T00:10:13.031Z,8.80
2019-03-17T00:11:17.646Z,8.80
2019-03-17T00:12:22.263Z,8.80
2019-03-17T00:13:26.825Z,8.80
2019-03-17T00:14:31.472Z,8.80
2019-03-17T00:15:36.125Z,8.70
2019-03-17T00:16:40.674Z,8.70
2019-03-17T00:17:45.435Z,8.80
2019-03-17T00:18:49.960Z,8.70
2019-03-17T00:19:54.505Z,8.80
2019-03-17T00:20:59.114Z,8.80
2019-03-17T00:22:03.758Z,8.80
2019-03-17T00:23:09.295Z,8.80
2019-03-17T00:24:14.814Z,8.80
2019-03-17T00:25:19.392Z,8.80
2019-03-17T00:26:24.068Z,8.80
2019-03-17T00:27:28.776Z,8.80
2019-03-17T00:28:33.313Z,8.80
2019-03-17T00:29:37.833Z,8.80
2019-03-17T00:30:42.421Z,8.70
2019-03-17T00:31:46.951Z,8.70
2019-03-17T00:32:51.497Z,8.70
2019-03-17T00:33:56.076Z,8.70
2019-03-17T00:35:00.647Z,8.70
2019-03-17T00:36:05.234Z,8.70
2019-03-17T00:37:09.839Z,8.70
2019-03-17T00:38:14.454Z,8.70
2019-03-17T00:39:19.032Z,8.70
2019-03-17T00:40:23.623Z,8.70
2019-03-17T00:41:28.212Z,8.70
2019-03-17T00:42:32.816Z,8.80
2019-03-17T00:43:37.364Z,8.80
2019-03-17T00:44:41.953Z,8.80
2019-03-17T00:45:46.544Z,8.80
2019-03-17T00:46:51.298Z,8.80
2019-03-17T00:47:55.899Z,8.80
2019-03-17T00:49:00.501Z,8.80
2019-03-17T00:50:05.459Z,8.80
2019-03-17T00:51:10.037Z,8.80
2019-03-17T00:52:14.626Z,8.90
2019-03-17T00:53:19.172Z,8.90
2019-03-17T00:54:23.734Z,8.90
2019-03-17T00:55:28.309Z,8.90
2019-03-17T00:56:32.894Z,8.90
2019-03-17T00:57:37.499Z,8.80
2019-03-17T00:58:42.094Z,8.80
2019-03-17T00:59:46.644Z,8.80
2019-03-17T01:00:51.200Z,8.80
2019-03-17T01:01:55.766Z,8.80
2019-03-17T01:03:00.351Z,8.80
2019-03-17T01:04:04.881Z,8.80
2019-03-17T01:05:09.861Z,8.80
2019-03-17T01:06:14.454Z,8.80
2019-03-17T01:07:19.187Z,8.80
2019-03-17T01:08:23.814Z,8.80
2019-03-17T01:09:28.594Z,8.80
2019-03-17T01:10:33.143Z,8.80
2019-03-17T01:11:37.695Z,8.80
2019-03-17T01:12:44.715Z,8.80
2019-03-17T01:13:48.631Z,8.80
2019-03-17T01:14:53.189Z,8.70
2019-03-17T01:15:57.852Z,8.70
2019-03-17T01:17:02.448Z,8.70
2019-03-17T01:18:07.151Z,8.70
2019-03-17T01:19:11.860Z,8.70
2019-03-17T01:20:16.459Z,8.70
2019-03-17T01:21:21.009Z,8.70
2019-03-17T01:22:25.650Z,8.70
2019-03-17T01:23:30.323Z,8.70
2019-03-17T01:24:34.879Z,8.70
2019-03-17T01:25:39.533Z,8.70
2019-03-17T01:26:44.041Z,8.70
2019-03-17T01:27:48.751Z,8.70
2019-03-17T01:28:53.323Z,8.70
2019-03-17T01:29:57.917Z,8.70
2019-03-17T01:31:02.468Z,8.70
2019-03-17T01:32:07.026Z,8.70
2019-03-17T01:33:11.575Z,8.70
2019-03-17T01:34:16.145Z,8.70
2019-03-17T01:36:17.531Z,8.70
2019-03-17T01:37:22.181Z,8.70
2019-03-17T01:38:26.809Z,8.70
2019-03-17T01:39:31.421Z,8.70
2019-03-17T01:40:35.990Z,8.60
2019-03-17T01:41:40.543Z,8.70
2019-03-17T01:42:45.092Z,8.70
2019-03-17T01:43:49.643Z,8.60
2019-03-17T01:44:54.233Z,8.60
2019-03-17T01:45:58.961Z,8.60
2019-03-17T01:47:03.506Z,8.60
2019-03-17T01:48:08.127Z,8.60
2019-03-17T01:49:13.774Z,8.60
2019-03-17T01:50:18.334Z,8.70
2019-03-17T01:51:22.875Z,8.60
2019-03-17T01:52:27.465Z,8.70
2019-03-17T01:53:32.102Z,8.60
2019-03-17T01:54:36.673Z,8.60
2019-03-17T01:55:41.308Z,8.70
2019-03-17T01:56:45.860Z,8.60
2019-03-17T01:57:50.445Z,8.60
2019-03-17T01:58:55.003Z,8.60
2019-03-17T01:59:59.571Z,8.70
2019-03-17T02:01:04.195Z,8.70
2019-03-17T02:02:08.799Z,8.70
2019-03-17T02:03:13.413Z,8.70
2019-03-17T02:04:18.047Z,8.70
2019-03-17T02:05:22.734Z,8.70
2019-03-17T02:06:27.500Z,8.70
2019-03-17T02:07:32.060Z,8.70
2019-03-17T02:08:37.275Z,8.70
2019-03-17T02:09:41.839Z,8.60
2019-03-17T02:10:46.480Z,8.70
2019-03-17T02:11:51.067Z,8.70
2019-03-17T02:12:56.627Z,8.60
2019-03-17T02:14:01.237Z,8.60
2019-03-17T02:15:06.325Z,8.60
2019-03-17T02:16:10.991Z,8.60
2019-03-17T02:17:15.564Z,8.70
2019-03-17T02:18:20.102Z,8.70
2019-03-17T02:19:24.671Z,8.70
2019-03-17T02:20:29.221Z,8.70
2019-03-17T02:21:33.811Z,8.70
2019-03-17T02:22:50.730Z,8.70
2019-03-17T02:23:55.370Z,8.70
2019-03-17T02:24:59.992Z,8.70
2019-03-17T02:26:04.621Z,8.70
2019-03-17T02:27:09.182Z,8.70
2019-03-17T02:28:13.726Z,8.70
2019-03-17T02:29:18.409Z,8.70
2019-03-17T02:30:22.966Z,8.70
2019-03-17T02:31:27.596Z,8.70
2019-03-17T02:32:32.119Z,8.80
2019-03-17T02:33:36.703Z,8.70
2019-03-17T02:34:41.277Z,8.80
2019-03-17T02:35:46.799Z,8.80
2019-03-17T02:36:51.333Z,8.80
2019-03-17T02:37:55.936Z,8.80
2019-03-17T02:39:00.845Z,8.80
2019-03-17T02:40:05.673Z,8.80
2019-03-17T02:41:10.266Z,8.80
2019-03-17T02:42:14.840Z,8.80
2019-03-17T02:43:19.403Z,8.80
2019-03-17T02:44:24.041Z,8.90
2019-03-17T02:45:28.629Z,8.90
2019-03-17T02:46:33.265Z,8.90
2019-03-17T02:47:37.839Z,8.90
2019-03-17T02:48:42.430Z,8.90
2019-03-17T02:49:47.002Z,8.90
2019-03-17T02:50:51.605Z,8.90
2019-03-17T02:51:56.180Z,8.90
2019-03-17T02:53:00.752Z,8.90
2019-03-17T02:54:05.625Z,8.90
2019-03-17T02:55:10.566Z,8.80
2019-03-17T02:56:16.300Z,8.80
2019-03-17T02:57:20.986Z,8.80
2019-03-17T02:58:25.741Z,8.80
2019-03-17T02:59:30.289Z,8.80
2019-03-17T03:00:34.922Z,8.80
2019-03-17T03:01:39.572Z,8.80
2019-03-17T03:02:44.203Z,8.80
2019-03-17T03:03:48.973Z,8.80
2019-03-17T03:04:53.573Z,8.80
2019-03-17T03:05:58.312Z,8.80
2019-03-17T03:07:02.906Z,8.80
2019-03-17T03:08:07.520Z,8.80
2019-03-17T03:09:12.153Z,8.80
2019-03-17T03:10:16.872Z,8.80
2019-03-17T03:11:21.455Z,8.80
2019-03-17T03:12:26.028Z,8.70
2019-03-17T03:13:30.564Z,8.70
2019-03-17T03:14:35.133Z,8.70
2019-03-17T03:15:39.789Z,8.70
2019-03-17T03:16:44.364Z,8.70
2019-03-17T03:17:49.022Z,8.70
2019-03-17T03:18:53.580Z,8.70
2019-03-17T03:19:58.152Z,8.70
2019-03-17T03:21:03.782Z,8.70
2019-03-17T03:22:08.345Z,8.70
2019-03-17T03:23:12.910Z,8.60
2019-03-17T03:24:17.497Z,8.60
2019-03-17T03:25:22.054Z,8.60
2019-03-17T03:26:26.802Z,8.60
2019-03-17T03:27:31.467Z,8.60
2019-03-17T03:28:36.989Z,8.60
2019-03-17T03:29:41.582Z,8.60
2019-03-17T03:30:46.195Z,8.60
2019-03-17T03:31:50.834Z,8.60
2019-03-17T03:32:55.437Z,8.60
2019-03-17T03:34:01.010Z,8.60
2019-03-17T03:35:06.146Z,8.50
2019-03-17T03:36:12.069Z,8.50
2019-03-17T03:37:16.777Z,8.50
2019-03-17T03:38:21.317Z,8.50
2019-03-17T03:39:25.973Z,8.50
2019-03-17T03:40:30.560Z,8.50
2019-03-17T03:41:35.568Z,8.50
2019-03-17T03:42:40.201Z,8.40
2019-03-17T03:43:44.921Z,8.40
2019-03-17T03:44:49.506Z,8.40
2019-03-17T03:45:54.194Z,8.40
2019-03-17T03:46:58.749Z,8.40
2019-03-17T03:48:03.320Z,8.40
2019-03-17T03:49:07.867Z,8.40
2019-03-17T03:50:13.122Z,8.40
2019-03-17T03:51:17.716Z,8.40
2019-03-17T03:52:22.313Z,8.40
2019-03-17T03:53:26.881Z,8.40
2019-03-17T03:54:31.450Z,8.40
2019-03-17T03:55:36.017Z,8.40
2019-03-17T03:56:40.574Z,8.30
2019-03-17T03:57:45.123Z,8.30
2019-03-17T03:58:49.675Z,8.30
2019-03-17T03:59:54.263Z,8.30
2019-03-17T04:00:58.847Z,8.30
2019-03-17T04:02:03.428Z,8.30
2019-03-17T04:03:07.986Z,8.30
2019-03-17T04:04:12.541Z,8.30
2019-03-17T04:05:17.205Z,8.30
2019-03-17T04:06:26.659Z,8.20
2019-03-17T04:07:28.314Z,8.20
2019-03-17T04:08:32.927Z,8.20
2019-03-17T04:09:37.490Z,8.20
2019-03-17T04:10:42.043Z,8.10
2019-03-17T04:11:46.669Z,8.10
2019-03-17T04:12:51.315Z,8.20
2019-03-17T04:13:55.874Z,8.10
2019-03-17T04:15:00.707Z,8.10
2019-03-17T04:16:05.464Z,8.10
2019-03-17T04:17:10.020Z,8.10
2019-03-17T04:18:14.606Z,8.10
2019-03-17T04:19:19.400Z,8.10
2019-03-17T04:20:24.015Z,8.10
2019-03-17T04:21:28.600Z,8.10
2019-03-17T04:22:33.159Z,8.10
2019-03-17T04:23:37.794Z,8.10
2019-03-17T04:24:42.482Z,8.10
2019-03-17T04:25:47.021Z,8.10
2019-03-17T04:26:51.603Z,8.10
2019-03-17T04:27:56.174Z,8.10
2019-03-17T04:29:00.810Z,8.10
2019-03-17T04:30:05.988Z,8.10
2019-03-17T04:31:14.155Z,8.10
2019-03-17T04:32:16.902Z,8.10
2019-03-17T04:33:21.485Z,8.10
2019-03-17T04:34:26.016Z,8.10
2019-03-17T04:35:30.603Z,8.20
2019-03-17T04:36:40.587Z,8.20
2019-03-17T04:37:42.540Z,8.20
2019-03-17T04:38:47.265Z,8.20
2019-03-17T04:39:51.869Z,8.30
2019-03-17T04:40:56.442Z,8.30
2019-03-17T04:42:01.240Z,8.30
2019-03-17T04:43:06.892Z,8.30
2019-03-17T04:44:20.240Z,8.20
2019-03-17T04:45:17.752Z,8.20
2019-03-17T04:46:22.319Z,8.20
2019-03-17T04:47:26.939Z,8.20
2019-03-17T04:48:31.469Z,8.20
2019-03-17T04:49:36.069Z,8.20
2019-03-17T04:50:40.667Z,8.10
2019-03-17T04:51:45.355Z,8.20
2019-03-17T04:52:49.904Z,8.20
2019-03-17T04:53:57.875Z,8.20
2019-03-17T04:55:03.537Z,8.20
2019-03-17T04:56:08.110Z,8.20
2019-03-17T04:57:12.666Z,8.20
2019-03-17T04:58:17.306Z,8.10
2019-03-17T04:59:21.856Z,8.10
2019-03-17T05:00:26.496Z,8.10
2019-03-17T05:01:31.059Z,8.10
2019-03-17T05:02:35.681Z,8.20
2019-03-17T05:03:40.239Z,8.20
2019-03-17T05:04:44.784Z,8.10
2019-03-17T05:05:50.483Z,8.10
2019-03-17T05:06:55.058Z,8.10
2019-03-17T05:07:59.798Z,8.10
2019-03-17T05:09:06.278Z,8.10
2019-03-17T05:10:11.070Z,8.10
2019-03-17T05:11:16.715Z,8.10
2019-03-17T05:12:21.381Z,8.10
2019-03-17T05:13:26.111Z,8.10
2019-03-17T05:14:30.690Z,8.10
2019-03-17T05:15:35.357Z,8.10
2019-03-17T05:16:39.921Z,8.10
2019-03-17T05:17:44.488Z,8.10
2019-03-17T05:18:49.070Z,8.10
2019-03-17T05:19:57.311Z,8.10
2019-03-17T05:21:03.998Z,8.10
2019-03-17T05:22:08.580Z,8.10
2019-03-17T05:23:13.839Z,8.10
2019-03-17T05:24:19.179Z,8.10
2019-03-17T05:25:24.312Z,8.10
2019-03-17T05:26:31.416Z,8.10
2019-03-17T05:27:37.064Z,8.10
2019-03-17T05:28:42.032Z,8.10
2019-03-17T05:29:49.892Z,8.10
2019-03-17T05:30:54.535Z,8.10
2019-03-17T05:31:59.127Z,8.10
2019-03-17T05:33:03.761Z,8.10
2019-03-17T05:34:08.627Z,8.10
2019-03-17T05:35:33.182Z,8.10
2019-03-17T05:36:38.050Z,8.10
2019-03-17T05:37:42.701Z,8.10
2019-03-17T05:38:47.336Z,8.10
2019-03-17T05:39:51.976Z,8.10
2019-03-17T05:40:56.533Z,8.10
2019-03-17T05:42:01.160Z,8.10
2019-03-17T05:43:06.340Z,8.10
2019-03-17T05:44:13.023Z,8.10
2019-03-17T05:45:17.676Z,8.10
2019-03-17T05:46:22.615Z,8.10
2019-03-17T05:47:27.274Z,8.20
2019-03-17T05:48:31.875Z,8.20
2019-03-17T05:49:36.517Z,8.20
2019-03-17T05:50:41.107Z,8.20
2019-03-17T05:51:45.736Z,8.20
2019-03-17T05:52:50.610Z,8.20
2019-03-17T05:53:55.207Z,8.20
2019-03-17T05:54:59.875Z,8.20
2019-03-17T05:56:04.466Z,8.20
2019-03-17T05:57:09.051Z,8.20
2019-03-17T05:58:13.715Z,8.30
2019-03-17T05:59:19.690Z,8.30
2019-03-17T06:00:24.474Z,8.30
2019-03-17T06:01:29.016Z,8.30
2019-03-17T06:02:33.579Z,8.30
2019-03-17T06:03:38.127Z,8.30
2019-03-17T06:04:42.783Z,8.30
2019-03-17T06:05:47.386Z,8.30
2019-03-17T06:06:52.073Z,8.30
2019-03-17T06:07:57.033Z,8.30
2019-03-17T06:09:01.606Z,8.30
2019-03-17T06:10:07.684Z,8.40
2019-03-17T06:11:12.244Z,8.30
2019-03-17T06:12:16.859Z,8.40
2019-03-17T06:13:21.430Z,8.40
2019-03-17T06:14:25.963Z,8.40
2019-03-17T06:15:30.503Z,8.40
2019-03-17T06:16:35.049Z,8.40
2019-03-17T06:17:39.603Z,8.50
2019-03-17T06:18:44.197Z,8.50
2019-03-17T06:19:48.787Z,8.50
2019-03-17T06:20:53.335Z,8.50
2019-03-17T06:22:00.365Z,8.60
2019-03-17T06:23:04.131Z,8.60
2019-03-17T06:24:08.688Z,8.60
2019-03-17T06:25:13.264Z,8.70
2019-03-17T06:26:18.527Z,8.70
2019-03-17T06:27:23.172Z,8.70
2019-03-17T06:28:27.814Z,8.70
2019-03-17T06:29:32.404Z,8.70
2019-03-17T06:30:37.628Z,8.80
2019-03-17T06:31:42.455Z,8.80
2019-03-17T06:32:47.104Z,8.90
2019-03-17T06:33:51.762Z,9.00
2019-03-17T06:34:56.320Z,9.00
2019-03-17T06:36:00.965Z,9.00
2019-03-17T06:37:05.644Z,9.00
2019-03-17T06:38:10.203Z,9.10
2019-03-17T06:39:14.815Z,9.00
2019-03-17T06:40:19.497Z,9.10
2019-03-17T06:41:24.688Z,9.10
2019-03-17T06:42:35.722Z,9.20
2019-03-17T06:43:40.897Z,9.20
2019-03-17T06:44:45.567Z,9.10
2019-03-17T06:45:50.549Z,9.10
2019-03-17T06:46:55.669Z,9.20
2019-03-17T06:48:00.254Z,9.20
2019-03-17T06:49:04.887Z,9.20
2019-03-17T06:50:10.358Z,9.20
2019-03-17T06:51:14.909Z,9.20
2019-03-17T06:52:19.484Z,9.20
2019-03-17T06:53:24.425Z,9.20
2019-03-17T06:54:29.307Z,9.20
2019-03-17T06:55:33.864Z,9.20
2019-03-17T06:56:38.405Z,9.30
2019-03-17T06:57:43.026Z,9.30
2019-03-17T06:58:47.720Z,9.30
2019-03-17T06:59:52.427Z,9.30
2019-03-17T07:00:57.091Z,9.30
2019-03-17T07:02:01.775Z,9.30
2019-03-17T07:03:06.370Z,9.30
2019-03-17T07:04:11.071Z,9.30
2019-03-17T07:05:15.793Z,9.30
2019-03-17T07:06:20.481Z,9.30
2019-03-17T07:07:25.156Z,9.40
2019-03-17T07:08:29.807Z,9.40
2019-03-17T07:09:34.926Z,9.40
2019-03-17T07:10:39.513Z,9.40
2019-03-17T07:11:44.099Z,9.50
2019-03-17T07:12:49.326Z,9.50
2019-03-17T07:13:58.078Z,9.50
2019-03-17T07:15:02.642Z,9.50
2019-03-17T07:16:07.195Z,9.50
2019-03-17T07:17:12.335Z,9.50
2019-03-17T07:18:18.772Z,9.60
2019-03-17T07:19:23.638Z,9.60
2019-03-17T07:20:28.391Z,9.60
2019-03-17T07:21:33.564Z,9.60
2019-03-17T07:22:41.845Z,9.60
2019-03-17T07:23:46.739Z,9.70
2019-03-17T07:24:51.903Z,9.70
2019-03-17T07:25:57.447Z,9.70
2019-03-17T07:27:05.524Z,9.80
2019-03-17T07:28:10.079Z,9.70
2019-03-17T07:29:14.847Z,9.80
2019-03-17T07:30:19.890Z,9.80
2019-03-17T07:31:24.618Z,9.80
2019-03-17T07:32:29.183Z,9.70
2019-03-17T07:33:33.773Z,9.70
2019-03-17T07:34:38.365Z,9.70
2019-03-17T07:35:42.975Z,9.70
2019-03-17T07:36:47.662Z,9.70
2019-03-17T07:37:57.063Z,9.60
2019-03-17T07:39:10.853Z,9.70
2019-03-17T07:40:05.708Z,9.80
2019-03-17T07:41:10.352Z,9.80
2019-03-17T07:42:16.839Z,9.90
2019-03-17T07:43:22.826Z,10.10
2019-03-17T07:44:28.009Z,10.20
2019-03-17T07:45:32.608Z,10.40
2019-03-17T07:46:37.262Z,10.60
2019-03-17T07:47:41.916Z,10.70
2019-03-17T07:48:46.531Z,10.80
2019-03-17T07:49:51.586Z,10.80
2019-03-17T07:50:56.321Z,10.90
2019-03-17T07:52:00.855Z,11.00
2019-03-17T07:53:05.580Z,11.20
2019-03-17T07:54:10.128Z,11.40
2019-03-17T07:55:14.801Z,11.70
2019-03-17T07:56:19.355Z,12.00
2019-03-17T07:57:23.937Z,12.30
2019-03-17T07:58:28.550Z,12.60
2019-03-17T07:59:33.128Z,12.70
2019-03-17T08:00:37.681Z,13.00
2019-03-17T08:01:42.262Z,13.20
2019-03-17T08:02:48.166Z,13.40
2019-03-17T08:03:54.180Z,13.60
2019-03-17T08:04:58.755Z,13.70
2019-03-17T08:06:03.408Z,13.80
2019-03-17T08:07:08.026Z,14.10
2019-03-17T08:08:12.635Z,14.20
2019-03-17T08:09:17.241Z,14.40
2019-03-17T08:10:21.826Z,14.60
2019-03-17T08:11:26.475Z,14.60
2019-03-17T08:12:31.162Z,14.70
2019-03-17T08:13:35.784Z,14.80
2019-03-17T08:14:40.647Z,14.70
2019-03-17T08:15:45.244Z,14.80
2019-03-17T08:16:49.925Z,14.70
2019-03-17T08:17:54.501Z,14.50
2019-03-17T08:18:59.144Z,14.50
2019-03-17T08:20:03.832Z,14.60
2019-03-17T08:21:08.440Z,14.70
2019-03-17T08:22:13.133Z,14.70
2019-03-17T08:23:17.708Z,14.70
2019-03-17T08:24:22.304Z,14.70
2019-03-17T08:25:27.006Z,14.90
2019-03-17T08:26:31.564Z,15.20
2019-03-17T08:27:36.306Z,15.30
2019-03-17T08:28:40.891Z,15.30
2019-03-17T08:29:45.507Z,15.30
2019-03-17T08:30:53.438Z,15.30
2019-03-17T08:31:56.572Z,15.40
2019-03-17T08:33:02.148Z,15.50
2019-03-17T08:34:06.727Z,15.50
2019-03-17T08:35:11.456Z,15.60
2019-03-17T08:36:17.234Z,15.60
2019-03-17T08:37:22.208Z,15.70
2019-03-17T08:38:27.983Z,15.50
2019-03-17T08:39:32.594Z,15.20
2019-03-17T08:40:37.163Z,15.20
2019-03-17T08:41:41.793Z,15.20
2019-03-17T08:42:46.389Z,15.30
2019-03-17T08:43:54.534Z,15.10
2019-03-17T08:44:57.304Z,15.00
2019-03-17T08:46:02.152Z,15.10
2019-03-17T08:47:06.804Z,15.00
2019-03-17T08:48:11.468Z,14.80
2019-03-17T08:49:16.071Z,14.40
2019-03-17T08:50:21.758Z,14.20
2019-03-17T08:51:26.456Z,14.00
2019-03-17T08:52:34.157Z,13.70
2019-03-17T08:53:37.438Z,13.50
2019-03-17T08:54:42.097Z,13.40
2019-03-17T08:55:46.720Z,13.30
2019-03-17T08:56:51.338Z,13.30
2019-03-17T08:57:55.952Z,13.30
2019-03-17T08:59:00.639Z,13.30
2019-03-17T09:00:06.284Z,13.30
2019-03-17T09:01:10.866Z,13.40
2019-03-17T09:02:15.539Z,13.50
2019-03-17T09:03:39.511Z,13.40
2019-03-17T09:04:44.144Z,13.50
2019-03-17T09:05:48.841Z,13.30
2019-03-17T09:06:54.495Z,13.20
2019-03-17T09:07:59.124Z,13.20
2019-03-17T09:09:05.312Z,13.10
2019-03-17T09:10:10.481Z,13.00
2019-03-17T09:11:15.089Z,12.90
2019-03-17T09:12:19.678Z,12.90
2019-03-17T09:13:24.228Z,12.80
2019-03-17T09:14:28.777Z,12.80
2019-03-17T09:15:33.326Z,12.80
2019-03-17T09:16:37.887Z,12.80
2019-03-17T09:17:42.552Z,12.90
2019-03-17T09:18:47.084Z,12.90
2019-03-17T09:19:51.647Z,12.90
2019-03-17T09:20:56.199Z,12.90
2019-03-17T09:22:00.753Z,12.90
2019-03-17T09:23:05.298Z,12.90
2019-03-17T09:24:17.092Z,12.90
2019-03-17T09:25:16.220Z,12.90
2019-03-17T09:26:20.828Z,13.00
2019-03-17T09:27:25.400Z,13.00
2019-03-17T09:28:29.974Z,13.00
2019-03-17T09:29:34.530Z,13.00
2019-03-17T09:30:40.039Z,13.10
2019-03-17T09:31:45.544Z,13.10
2019-03-17T09:32:50.095Z,13.20
2019-03-17T09:33:54.741Z,13.30
2019-03-17T09:34:59.291Z,13.30
2019-03-17T09:36:03.928Z,13.30
2019-03-17T09:37:08.478Z,13.30
2019-03-17T09:38:17.228Z,13.30
2019-03-17T09:39:21.762Z,13.40
2019-03-17T09:40:26.299Z,13.40
2019-03-17T09:41:30.847Z,13.50
2019-03-17T09:42:35.453Z,13.50
2019-03-17T09:43:40.024Z,13.50
2019-03-17T09:44:44.676Z,13.50
2019-03-17T09:45:49.429Z,13.50
2019-03-17T09:46:54.418Z,13.50
2019-03-17T09:47:59.240Z,13.50
2019-03-17T09:49:03.834Z,13.50
2019-03-17T09:50:09.231Z,13.60
2019-03-17T09:51:13.884Z,13.60
2019-03-17T09:52:18.499Z,13.70
2019-03-17T09:53:23.075Z,13.70
2019-03-17T09:54:27.788Z,13.70
2019-03-17T09:55:32.384Z,13.60
2019-03-17T09:56:37.086Z,13.60
2019-03-17T09:57:41.812Z,13.60
2019-03-17T09:58:46.358Z,13.60
2019-03-17T09:59:50.947Z,13.70
2019-03-17T10:00:55.535Z,13.80
2019-03-17T10:02:00.095Z,13.90
2019-03-17T10:03:04.677Z,14.00
2019-03-17T10:04:09.238Z,14.00
2019-03-17T10:05:13.979Z,14.00
2019-03-17T10:06:18.668Z,14.00
2019-03-17T10:07:23.340Z,13.90
2019-03-17T10:08:27.933Z,13.90
2019-03-17T10:09:32.540Z,13.80
2019-03-17T10:10:37.146Z,13.80
2019-03-17T10:11:41.679Z,13.90
2019-03-17T10:12:46.328Z,13.90
2019-03-17T10:13:50.915Z,13.80
2019-03-17T10:14:55.628Z,13.80
2019-03-17T10:16:00.251Z,13.70
2019-03-17T10:17:04.952Z,13.70
2019-03-17T10:18:09.613Z,13.70
2019-03-17T10:19:14.533Z,13.70
2019-03-17T10:20:20.230Z,13.70
2019-03-17T10:21:25.084Z,13.80
2019-03-17T10:22:29.857Z,13.80
2019-03-17T10:23:34.419Z,13.70
2019-03-17T10:24:39.056Z,13.70
2019-03-17T10:25:43.767Z,13.70
2019-03-17T10:26:48.615Z,13.70
2019-03-17T10:27:53.178Z,13.60
2019-03-17T10:28:57.730Z,13.60
2019-03-17T10:30:02.326Z,13.50
2019-03-17T10:31:06.961Z,13.50
2019-03-17T10:32:11.652Z,13.50
2019-03-17T10:33:16.225Z,13.40
2019-03-17T10:34:20.883Z,13.40
2019-03-17T10:35:25.800Z,13.40
2019-03-17T10:36:30.461Z,13.40
2019-03-17T10:37:35.077Z,13.30
2019-03-17T10:38:39.686Z,13.20
2019-03-17T10:39:44.211Z,13.20
2019-03-17T10:40:48.795Z,13.20
2019-03-17T10:41:53.373Z,13.10
2019-03-17T10:42:58.196Z,13.10
2019-03-17T10:44:02.828Z,13.10
2019-03-17T10:45:07.802Z,13.00
2019-03-17T10:46:12.356Z,13.00
2019-03-17T10:47:16.936Z,13.00
2019-03-17T10:48:21.583Z,12.90
2019-03-17T10:49:26.198Z,13.00
2019-03-17T10:50:30.723Z,13.00
2019-03-17T10:51:35.296Z,12.90
2019-03-17T10:52:39.867Z,12.90
2019-03-17T10:53:44.409Z,12.90
2019-03-17T10:54:49.118Z,13.00
2019-03-17T10:55:53.672Z,13.00
2019-03-17T10:56:58.351Z,12.90
2019-03-17T10:58:02.878Z,12.90
2019-03-17T10:59:07.494Z,13.00
2019-03-17T11:00:13.961Z,13.00
2019-03-17T11:01:18.595Z,13.00
2019-03-17T11:02:23.386Z,13.10
2019-03-17T11:03:27.990Z,13.10
2019-03-17T11:04:32.564Z,13.20
2019-03-17T11:05:37.246Z,13.30
2019-03-17T11:06:41.823Z,13.30
2019-03-17T11:07:46.670Z,13.40
2019-03-17T11:08:51.330Z,13.40
2019-03-17T11:09:55.958Z,13.40
2019-03-17T11:11:00.533Z,13.40
2019-03-17T11:12:05.210Z,13.50
2019-03-17T11:13:09.930Z,13.60
2019-03-17T11:14:14.525Z,13.60
2019-03-17T11:15:20.302Z,13.60
2019-03-17T11:16:24.954Z,13.60
2019-03-17T11:17:29.583Z,13.60
2019-03-17T11:18:35.301Z,13.70
2019-03-17T11:19:42.495Z,13.60
2019-03-17T11:20:48.456Z,13.50
2019-03-17T11:21:53.280Z,13.50
2019-03-17T11:22:58.387Z,13.40
2019-03-17T11:24:03.208Z,13.40
2019-03-17T11:25:08.731Z,13.30
2019-03-17T11:26:13.521Z,13.30
2019-03-17T11:27:18.279Z,13.20
2019-03-17T11:28:23.044Z,13.20
2019-03-17T11:29:28.484Z,13.20
2019-03-17T11:30:33.242Z,13.10
2019-03-17T11:31:38.008Z,13.20
2019-03-17T11:32:42.588Z,13.20
2019-03-17T11:33:47.377Z,13.10
2019-03-17T11:34:53.356Z,13.10
2019-03-17T11:35:58.255Z,13.00
2019-03-17T11:37:03.067Z,13.00
2019-03-17T11:38:07.801Z,12.90
2019-03-17T11:39:12.415Z,13.00
2019-03-17T11:40:17.242Z,12.90
2019-03-17T11:41:22.252Z,12.90
2019-03-17T11:42:27.032Z,12.80
2019-03-17T11:43:31.740Z,12.80
2019-03-17T11:44:36.403Z,12.80
2019-03-17T11:45:41.031Z,12.80
2019-03-17T11:46:45.627Z,12.80
2019-03-17T11:47:51.904Z,12.80
2019-03-17T11:48:56.691Z,12.80
2019-03-17T11:50:01.598Z,12.80
2019-03-17T11:51:07.434Z,12.90
2019-03-17T11:52:11.993Z,12.90
2019-03-17T11:53:16.632Z,12.90
2019-03-17T11:54:21.384Z,12.90
2019-03-17T11:55:26.138Z,13.00
2019-03-17T11:56:30.899Z,13.00
2019-03-17T11:57:35.504Z,12.90
2019-03-17T11:58:40.382Z,13.00
2019-03-17T11:59:45.051Z,13.00
2019-03-17T12:00:49.672Z,12.90
2019-03-17T12:01:54.280Z,12.90
2019-03-17T12:02:58.852Z,12.90
2019-03-17T12:04:03.588Z,12.90
2019-03-17T12:05:08.955Z,12.90
2019-03-17T12:06:13.537Z,12.90
2019-03-17T12:07:18.173Z,12.90
2019-03-17T12:08:22.778Z,12.90
2019-03-17T12:09:29.238Z,12.90
2019-03-17T12:10:34.132Z,12.90
2019-03-17T12:11:39.773Z,12.90
2019-03-17T12:12:44.349Z,12.90
2019-03-17T12:13:48.954Z,12.90
2019-03-17T12:14:54.979Z,12.90
2019-03-17T12:15:59.627Z,12.80
2019-03-17T12:17:04.301Z,12.80
2019-03-17T12:18:08.896Z,12.80
2019-03-17T12:19:13.568Z,12.80
2019-03-17T12:20:18.252Z,12.80
2019-03-17T12:21:22.824Z,12.80
2019-03-17T12:22:28.085Z,12.80
2019-03-17T12:23:32.851Z,12.80
2019-03-17T12:24:37.445Z,12.80
2019-03-17T12:25:42.101Z,12.80
2019-03-17T12:26:46.898Z,12.70
2019-03-17T12:27:51.458Z,12.70
2019-03-17T12:28:56.122Z,12.70
2019-03-17T12:30:00.881Z,12.70
2019-03-17T12:31:05.506Z,12.70
2019-03-17T12:32:10.080Z,12.70
2019-03-17T12:33:14.675Z,12.70
2019-03-17T12:34:27.824Z,12.70
2019-03-17T12:35:25.589Z,12.70
2019-03-17T12:36:30.211Z,12.70
2019-03-17T12:37:34.812Z,12.60
2019-03-17T12:38:39.488Z,12.60
2019-03-17T12:39:44.091Z,12.60
2019-03-17T12:40:48.679Z,12.60
2019-03-17T12:41:53.306Z,12.60
2019-03-17T12:42:58.188Z,12.50
2019-03-17T12:44:02.735Z,12.50
2019-03-17T12:45:07.486Z,12.50
2019-03-17T12:46:12.152Z,12.50
2019-03-17T12:47:16.775Z,12.40
2019-03-17T12:48:21.386Z,12.40
2019-03-17T12:49:25.953Z,12.40
2019-03-17T12:50:30.497Z,12.40
2019-03-17T12:51:35.023Z,12.40
2019-03-17T12:52:39.590Z,12.40
2019-03-17T12:53:44.182Z,12.50
2019-03-17T12:54:48.753Z,12.50
2019-03-17T12:55:53.567Z,12.50
2019-03-17T12:56:58.249Z,12.50
2019-03-17T12:58:02.994Z,12.60
2019-03-17T12:59:07.560Z,12.60
2019-03-17T13:00:14.136Z,12.60
2019-03-17T13:01:18.916Z,12.60
2019-03-17T13:02:23.568Z,12.60
2019-03-17T13:03:28.234Z,12.60
2019-03-17T13:04:32.909Z,12.50
2019-03-17T13:05:37.596Z,12.50
2019-03-17T13:06:42.197Z,12.60
2019-03-17T13:07:46.849Z,12.60
2019-03-17T13:08:51.558Z,12.60
2019-03-17T13:09:56.224Z,12.60
2019-03-17T13:11:00.788Z,12.60
2019-03-17T13:12:05.335Z,12.60
2019-03-17T13:13:10.010Z,12.60
2019-03-17T13:14:14.583Z,12.60
2019-03-17T13:15:19.167Z,12.60
2019-03-17T13:16:23.817Z,12.60
2019-03-17T13:17:28.368Z,12.50
2019-03-17T13:18:33.026Z,12.50
2019-03-17T13:19:37.631Z,12.50
2019-03-17T13:20:42.283Z,12.40
2019-03-17T13:21:46.875Z,12.40
2019-03-17T13:22:51.414Z,12.40
2019-03-17T13:23:56.051Z,12.30
2019-03-17T13:25:00.678Z,12.10
2019-03-17T13:26:05.244Z,11.80
2019-03-17T13:27:09.807Z,11.40
2019-03-17T13:28:14.448Z,10.90
2019-03-17T13:29:19.029Z,10.50
2019-03-17T13:30:23.646Z,10.00
2019-03-17T13:31:28.216Z,9.60
2019-03-17T13:32:32.799Z,9.30
2019-03-17T13:33:37.529Z,9.20
2019-03-17T13:34:42.091Z,8.90
2019-03-17T13:35:46.660Z,8.80
2019-03-17T13:36:51.331Z,8.60
2019-03-17T13:37:56.026Z,8.40
2019-03-17T13:39:00.617Z,8.30
2019-03-17T13:40:06.575Z,8.20
2019-03-17T13:41:12.146Z,8.10
2019-03-17T13:42:16.777Z,8.00
2019-03-17T13:43:21.364Z,7.90
2019-03-17T13:44:25.990Z,7.90
2019-03-17T13:45:30.660Z,7.80
2019-03-17T13:46:35.236Z,7.80
2019-03-17T13:47:39.867Z,7.80
2019-03-17T13:48:44.413Z,7.80
2019-03-17T13:49:49.103Z,7.80
2019-03-17T13:50:53.704Z,7.80
2019-03-17T13:51:58.250Z,7.80
2019-03-17T13:53:02.805Z,7.80
2019-03-17T13:54:07.372Z,7.80
2019-03-17T13:55:11.986Z,7.70
2019-03-17T13:56:16.618Z,7.70
2019-03-17T13:57:21.179Z,7.70
2019-03-17T13:58:25.726Z,7.60
2019-03-17T13:59:30.415Z,7.60
2019-03-17T14:00:34.991Z,7.60
2019-03-17T14:01:39.604Z,7.60
2019-03-17T14:02:44.162Z,7.60
2019-03-17T14:03:49.086Z,7.60
2019-03-17T14:04:53.632Z,7.50
2019-03-17T14:05:58.179Z,7.50
2019-03-17T14:07:02.846Z,7.50
2019-03-17T14:08:07.524Z,7.50
2019-03-17T14:09:12.255Z,7.50
2019-03-17T14:10:16.925Z,7.50
2019-03-17T14:11:21.593Z,7.50
2019-03-17T14:12:26.156Z,7.50